Time;durP1;ratioP1;P1;durP2;ratioP2;P2;SDS_P1;SDS_P2;PMS_P1;PMS_P2;Temp;Humidity;BMP_temperature;BMP_pressure;BME280_temperature;BME280_humidity;BME280_pressure;Samples;Min_cycle;Max_cycle;Signal;HPM_P1;HPM_P2
2023/07/29 00:02:07;;;;;;;8.45;7.05;;;28.30;26.80;;;;;;21089222;28;19927;-57
2023/07/29 00:12:07;;;;;;;;;;;28.20;27.40;;;;;;21087668;28;20398;-56
2023/07/29 00:22:08;;;;;;;9.43;6.70;;;27.90;27.60;;;;;;21086456;28;19930;-58
2023/07/29 00:32:09;;;;;;;9.50;6.63;;;28.10;27.80;;;;;;21086859;28;20292;-56
2023/07/29 00:42:10;;;;;;;8.90;5.83;;;28.10;28.30;;;;;;21085782;28;20087;-56
2023/07/29 00:52:12;;;;;;;8.15;5.45;;;28.00;28.50;;;;;;21085094;28;20079;-57
2023/07/29 01:02:13;;;;;;;8.25;6.10;;;28.00;28.70;;;;;;21082804;28;20048;-57
2023/07/29 01:12:43;;;;;;;8.00;6.38;;;28.00;28.90;;;;;;21083281;28;20528;-57
2023/07/29 01:22:44;;;;;;;8.07;6.03;;;28.00;29.20;;;;;;21058967;28;20140;-56
2023/07/29 01:32:47;;;;;;;;;;;27.70;29.60;;;;;;21082292;28;20058;-57
2023/07/29 01:42:48;;;;;;;6.18;4.70;;;27.40;30.00;;;;;;21079575;28;19931;-57
2023/07/29 01:52:49;;;;;;;4.00;3.00;;;27.30;31.10;;;;;;21080632;28;20044;-57
2023/07/29 02:02:50;;;;;;;8.07;4.90;;;27.10;32.90;;;;;;21080229;28;20040;-56
2023/07/29 02:12:50;;;;;;;4.87;2.67;;;27.00;34.40;;;;;;21078530;28;20056;-56
2023/07/29 02:22:51;;;;;;;3.37;2.43;;;26.90;35.80;;;;;;21077800;28;20044;-57
2023/07/29 02:32:52;;;;;;;3.37;2.20;;;26.80;36.70;;;;;;21083150;28;20535;-56
2023/07/29 02:42:53;;;;;;;5.03;2.40;;;26.70;37.40;;;;;;21095420;28;20048;-56
2023/07/29 02:52:53;;;;;;;5.20;2.27;;;26.70;38.20;;;;;;21094221;28;20043;-57
2023/07/29 03:02:54;;;;;;;7.70;4.90;;;26.60;38.90;;;;;;21093702;28;20060;-57
2023/07/29 03:12:55;;;;;;;4.40;2.33;;;26.70;39.00;;;;;;21092296;28;20048;-57
2023/07/29 03:22:56;;;;;;;5.65;2.65;;;26.70;39.40;;;;;;21092300;28;20489;-56
2023/07/29 03:32:57;;;;;;;3.33;2.13;;;26.60;39.60;;;;;;21091442;28;20117;-56
2023/07/29 03:42:57;;;;;;;4.20;2.60;;;26.60;39.80;;;;;;21089991;28;20044;-56
2023/07/29 03:52:58;;;;;;;8.23;6.40;;;26.60;40.10;;;;;;21088682;28;20127;-57
2023/07/29 04:02:59;;;;;;;4.60;3.13;;;26.50;40.40;;;;;;21088438;28;20076;-56
2023/07/29 04:13:00;;;;;;;3.17;1.93;;;26.40;40.80;;;;;;21086267;28;20063;-56
2023/07/29 04:23:00;;;;;;;6.40;4.03;;;26.40;41.00;;;;;;21087418;28;20119;-57
2023/07/29 04:33:01;;;;;;;7.93;4.57;;;26.10;40.00;;;;;;21086955;28;20127;-57
2023/07/29 04:43:02;;;;;;;8.37;5.17;;;25.70;39.00;;;;;;21086006;28;20048;-58
2023/07/29 04:53:03;;;;;;;9.87;5.90;;;25.20;37.80;;;;;;21084707;28;20047;-57
2023/07/29 05:03:03;;;;;;;7.90;5.73;;;24.80;37.10;;;;;;21084227;28;20044;-56
2023/07/29 05:13:04;;;;;;;8.13;5.30;;;24.50;36.80;;;;;;21082693;28;20126;-56
2023/07/29 05:23:05;;;;;;;8.68;4.85;;;24.30;37.00;;;;;;21082524;28;20405;-56
2023/07/29 05:33:08;;;;;;;7.18;5.50;;;24.10;36.80;;;;;;21082233;28;20044;-56
2023/07/29 05:43:09;;;;;;;6.57;4.97;;;24.20;36.30;;;;;;21081143;28;20473;-56
2023/07/29 05:53:09;;;;;;;7.95;4.97;;;24.00;35.80;;;;;;21080316;28;20066;-57
2023/07/29 06:03:10;;;;;;;5.57;4.40;;;23.90;35.90;;;;;;21080044;28;20082;-57
2023/07/29 06:13:11;;;;;;;9.63;6.00;;;23.80;36.30;;;;;;21077922;28;20052;-56
2023/07/29 06:23:12;;;;;;;10.15;5.18;;;23.90;36.80;;;;;;21078978;28;20052;-56
2023/07/29 06:33:12;;;;;;;12.68;6.35;;;24.20;36.30;;;;;;21078701;28;20052;-57
2023/07/29 06:43:13;;;;;;;12.13;6.82;;;24.70;36.60;;;;;;21078177;28;20123;-56
2023/07/29 06:53:14;;;;;;;15.50;6.93;;;25.00;34.50;;;;;;21078290;28;20127;-57
2023/07/29 07:03:14;;;;;;;11.23;6.40;;;25.60;31.10;;;;;;21077313;28;20063;-57
2023/07/29 07:13:15;;;;;;;13.93;7.83;;;26.30;29.50;;;;;;21076034;28;20052;-56
2023/07/29 07:23:17;;;;;;;14.17;7.40;;;27.10;28.30;;;;;;21087402;28;20040;-57
2023/07/29 07:33:17;;;;;;;25.75;13.07;;;27.50;27.90;;;;;;21091753;28;20054;-58
2023/07/29 07:43:18;;;;;;;;;;;28.10;27.40;;;;;;21090734;28;20075;-56
2023/07/29 07:53:19;;;;;;;18.00;7.50;;;28.30;27.20;;;;;;21089093;28;19974;-56
2023/07/29 08:03:20;;;;;;;13.48;7.15;;;28.60;27.10;;;;;;21087380;28;20066;-57
2023/07/29 08:13:21;;;;;;;9.27;6.30;;;28.90;26.60;;;;;;21087023;28;20124;-57
2023/07/29 08:23:22;;;;;;;16.45;8.02;;;29.20;26.50;;;;;;21086907;28;20051;-57
2023/07/29 08:33:24;;;;;;;12.23;7.35;;;29.40;26.70;;;;;;21084971;28;20040;-56
2023/07/29 08:43:32;;;;;;;10.65;6.50;;;29.70;26.70;;;;;;21085504;28;20438;-56
2023/07/29 08:53:33;;;;;;;8.73;6.00;;;29.80;27.00;;;;;;21084629;28;20421;-58
2023/07/29 09:03:34;;;;;;;9.82;6.93;;;30.10;26.40;;;;;;21082453;28;20036;-58
2023/07/29 09:13:35;;;;;;;8.90;5.88;;;30.20;26.90;;;;;;21081487;28;20497;-57
2023/07/29 09:23:41;;;;;;;9.77;6.03;;;30.30;28.10;;;;;;21082136;28;20485;-57
2023/07/29 09:33:42;;;;;;;12.70;5.55;;;30.60;28.10;;;;;;21081273;28;20048;-58
2023/07/29 09:43:43;;;;;;;8.95;6.45;;;30.60;28.80;;;;;;21080160;28;20047;-56
2023/07/29 09:53:48;;;;;;;9.25;4.07;;;30.70;29.50;;;;;;21078356;28;20052;-56
2023/07/29 10:03:49;;;;;;;6.80;3.88;;;31.10;30.30;;;;;;21079462;28;20055;-57
2023/07/29 10:13:50;;;;;;;4.28;3.10;;;31.40;30.70;;;;;;21076775;28;20158;-57
2023/07/29 10:23:56;;;;;;;4.55;2.90;;;31.60;31.10;;;;;;21078009;28;20538;-58
2023/07/29 10:33:58;;;;;;;3.80;3.15;;;31.90;30.50;;;;;;21077046;28;20048;-57
2023/07/29 10:43:58;;;;;;;4.68;3.42;;;32.00;30.10;;;;;;21077607;28;20140;-57
2023/07/29 10:54:04;;;;;;;5.15;2.70;;;32.20;30.60;;;;;;21081616;28;20450;-57
2023/07/29 11:04:20;;;;;;;3.67;2.53;;;32.20;31.10;;;;;;21093154;28;20032;-57
2023/07/29 11:14:21;;;;;;;3.35;2.70;;;32.50;29.70;;;;;;21093039;28;20131;-57
2023/07/29 11:24:22;;;;;;;6.88;3.10;;;32.60;29.50;;;;;;21091385;28;20047;-57
2023/07/29 11:34:32;;;;;;;3.38;2.40;;;32.50;29.00;;;;;;21089925;28;20052;-57
2023/07/29 11:44:33;;;;;;;6.05;3.95;;;32.80;27.90;;;;;;21090146;28;20055;-57
2023/07/29 11:54:37;;;;;;;4.95;2.00;;;32.90;28.40;;;;;;21090087;28;20084;-57
2023/07/29 12:04:38;;;;;;;2.25;1.40;;;33.10;27.10;;;;;;21087721;28;20040;-57
2023/07/29 12:14:45;;;;;;;3.63;1.80;;;33.20;26.20;;;;;;21087404;28;20501;-57
2023/07/29 12:24:46;;;;;;;2.75;1.80;;;33.30;26.90;;;;;;21085484;28;20385;-57
2023/07/29 12:34:47;;;;;;;4.93;2.30;;;33.40;25.30;;;;;;21084445;28;20052;-57
2023/07/29 12:44:47;;;;;;;4.83;4.33;;;33.50;25.30;;;;;;21084180;28;20430;-57
2023/07/29 12:54:48;;;;;;;2.85;1.63;;;33.80;25.30;;;;;;21084391;28;20284;-56
2023/07/29 13:04:49;;;;;;;1.80;1.50;;;33.60;26.30;;;;;;21083592;28;20083;-57
2023/07/29 13:14:49;;;;;;;2.25;1.70;;;33.90;25.10;;;;;;21081078;28;20052;-58
2023/07/29 13:24:50;;;;;;;2.40;1.60;;;34.10;24.90;;;;;;21081555;28;20044;-57
2023/07/29 13:34:51;;;;;;;2.55;1.88;;;34.30;25.00;;;;;;21081231;28;20048;-57
2023/07/29 13:44:52;;;;;;;2.38;1.92;;;34.20;25.10;;;;;;21080373;28;20040;-57
2023/07/29 13:54:52;;;;;;;4.55;1.55;;;34.10;25.50;;;;;;21079342;28;20074;-56
2023/07/29 14:04:53;;;;;;;3.33;1.80;;;34.40;24.70;;;;;;21078605;28;20036;-57
2023/07/29 14:14:54;;;;;;;2.70;1.50;;;34.60;24.30;;;;;;21078632;28;20190;-58
2023/07/29 14:24:54;;;;;;;4.03;1.80;;;34.60;23.70;;;;;;21077882;28;20047;-57
2023/07/29 14:34:55;;;;;;;2.20;1.40;;;34.60;23.00;;;;;;21092143;28;20079;-57
2023/07/29 14:44:56;;;;;;;5.28;2.05;;;34.90;22.90;;;;;;21093582;28;20477;-57
2023/07/29 14:54:57;;;;;;;2.50;1.65;;;35.10;22.30;;;;;;21094570;28;20481;-58
2023/07/29 15:04:57;;;;;;;1.90;1.35;;;35.00;23.30;;;;;;21094258;28;20048;-57
2023/07/29 15:14:58;;;;;;;3.27;1.50;;;35.10;23.10;;;;;;21092167;28;20131;-56
2023/07/29 15:25:02;;;;;;;1.60;1.10;;;35.10;22.80;;;;;;21092549;28;20304;-57
2023/07/29 15:35:03;;;;;;;4.35;1.40;;;35.20;22.60;;;;;;21090606;28;20372;-58
2023/07/29 15:45:04;;;;;;;1.88;1.45;;;35.10;23.40;;;;;;21090249;28;20470;-58
2023/07/29 15:55:05;;;;;;;2.10;1.60;;;35.20;23.30;;;;;;21089538;28;20059;-57
2023/07/29 16:05:07;;;;;;;3.92;1.50;;;35.10;23.30;;;;;;21088394;28;20047;-58
2023/07/29 16:15:08;;;;;;;2.47;1.50;;;35.10;23.80;;;;;;21088251;28;20439;-57
2023/07/29 16:25:09;;;;;;;2.65;1.55;;;35.10;23.40;;;;;;21086334;28;20143;-57
2023/07/29 16:35:10;;;;;;;2.25;1.65;;;35.10;24.00;;;;;;21084597;28;20077;-58
2023/07/29 16:45:11;;;;;;;3.13;1.60;;;35.10;24.00;;;;;;21085873;28;20036;-57
2023/07/29 16:55:12;;;;;;;3.10;1.83;;;35.00;23.90;;;;;;21084093;28;20052;-58
2023/07/29 17:05:13;;;;;;;2.92;1.45;;;34.90;23.70;;;;;;21084674;28;20040;-57
2023/07/29 17:15:13;;;;;;;2.78;1.90;;;34.70;23.20;;;;;;21082542;28;20056;-57
2023/07/29 17:25:14;;;;;;;2.45;1.83;;;34.80;23.20;;;;;;21083246;28;20516;-57
2023/07/29 17:35:15;;;;;;;3.88;1.70;;;34.60;23.60;;;;;;21081414;28;20091;-57
2023/07/29 17:45:16;;;;;;;5.90;1.52;;;34.60;23.60;;;;;;21080647;28;20387;-58
2023/07/29 17:55:17;;;;;;;3.53;1.70;;;34.50;23.30;;;;;;21079924;28;20424;-58
2023/07/29 18:05:17;;;;;;;2.97;1.63;;;34.30;23.90;;;;;;21078818;28;20044;-58
2023/07/29 18:15:18;;;;;;;5.88;1.60;;;34.10;24.20;;;;;;21078523;28;20515;-58
2023/07/29 18:25:19;;;;;;;3.53;1.60;;;34.00;24.10;;;;;;21078824;28;20119;-59
2023/07/29 18:35:19;;;;;;;2.92;1.50;;;34.00;24.10;;;;;;21078147;28;20048;-57
2023/07/29 18:45:20;;;;;;;2.30;1.70;;;33.90;24.60;;;;;;21077725;28;20063;-56
2023/07/29 18:55:22;;;;;;;4.07;2.03;;;33.70;24.90;;;;;;21077534;28;20405;-56
2023/07/29 19:05:22;;;;;;;4.55;1.95;;;33.50;25.00;;;;;;21077272;28;20040;-57
2023/07/29 19:15:23;;;;;;;5.28;2.42;;;33.30;25.60;;;;;;21079009;28;20492;-58
2023/07/29 19:25:25;;;;;;;4.88;2.05;;;33.10;26.10;;;;;;21090906;28;20078;-59
2023/07/29 19:35:26;;;;;;;3.55;1.90;;;33.10;26.50;;;;;;21089125;28;20077;-60
2023/07/29 19:45:27;;;;;;;3.33;1.95;;;32.80;26.80;;;;;;21088246;28;20424;-57
2023/07/29 19:55:30;;;;;;;2.23;1.50;;;32.70;27.10;;;;;;21090163;28;20075;-57
2023/07/29 20:05:31;;;;;;;5.03;1.70;;;32.50;27.80;;;;;;21089412;28;20753;-58
2023/07/29 20:15:32;;;;;;;2.85;1.90;;;32.30;28.60;;;;;;21087163;28;20071;-57
2023/07/29 20:25:32;;;;;;;3.78;2.10;;;32.10;29.40;;;;;;21087133;28;20055;-57
2023/07/29 20:35:33;;;;;;;3.90;2.35;;;32.10;30.00;;;;;;21085454;28;20047;-57
2023/07/29 20:45:35;;;;;;;2.97;2.28;;;31.90;30.30;;;;;;21085780;28;20051;-58
2023/07/29 20:55:36;;;;;;;2.20;1.70;;;31.70;30.70;;;;;;21085412;28;20068;-57
2023/07/29 21:05:36;;;;;;;2.72;2.08;;;31.50;31.10;;;;;;21084279;28;20040;-57
2023/07/29 21:15:37;;;;;;;3.03;1.80;;;31.50;31.30;;;;;;21082271;28;20051;-58
2023/07/29 21:25:38;;;;;;;3.38;1.70;;;31.40;31.50;;;;;;21083139;28;20036;-59
2023/07/29 21:35:39;;;;;;;4.55;1.80;;;31.10;31.90;;;;;;21082000;28;20044;-58
2023/07/29 21:45:39;;;;;;;3.25;2.10;;;31.10;32.10;;;;;;21082034;28;20048;-57
2023/07/29 21:55:41;;;;;;;4.18;1.85;;;30.90;32.40;;;;;;21079921;28;20070;-58
2023/07/29 22:05:41;;;;;;;5.95;2.90;;;30.60;32.80;;;;;;21079283;28;20059;-58
2023/07/29 22:15:42;;;;;;;8.43;4.20;;;30.50;33.10;;;;;;21077144;28;20052;-59
2023/07/29 22:25:43;;;;;;;2.35;1.65;;;30.40;33.30;;;;;;21078628;28;20044;-59
2023/07/29 22:35:44;;;;;;;3.90;2.15;;;30.20;33.50;;;;;;21077234;28;20119;-59
2023/07/29 22:45:56;;;;;;;2.33;1.70;;;30.20;33.30;;;;;;21075899;28;20048;-56
2023/07/29 22:55:56;;;;;;;2.92;1.92;;;30.20;33.30;;;;;;21091860;28;20051;-57
2023/07/29 23:05:57;;;;;;;2.35;1.73;;;30.10;33.40;;;;;;21093121;28;20132;-57
2023/07/29 23:16:01;;;;;;;3.50;2.03;;;30.00;33.30;;;;;;21091550;28;20149;-58
2023/07/29 23:26:02;;;;;;;3.28;2.33;;;29.90;33.40;;;;;;21092205;28;20036;-58
2023/07/29 23:36:03;;;;;;;4.32;2.10;;;29.70;33.50;;;;;;21091650;28;20044;-57
2023/07/29 23:46:04;;;;;;;2.55;1.50;;;29.60;33.60;;;;;;21091031;28;20142;-57
2023/07/29 23:56:05;;;;;;;3.35;1.58;;;29.60;33.70;;;;;;21090738;28;20062;-58
